sensor_id;sensor_type;location;lat;lon;timestamp;pressure;altitude;pressure_sealevel;temperature;humidity
18821;BME280;9539;59.332;18.034;2022-09-09T00:01:23;101959.47;;;13.24;100.00
18821;BME280;9539;59.332;18.034;2022-09-09T00:03:59;101964.28;;;13.17;100.00
18821;BME280;9539;59.332;18.034;2022-09-09T00:06:29;101952.06;;;13.13;100.00
18821;BME280;9539;59.332;18.034;2022-09-09T00:09:02;101961.03;;;13.10;100.00
18821;BME280;9539;59.332;18.034;2022-09-09T00:11:39;101958.84;;;13.36;100.00
18821;BME280;9539;59.332;18.034;2022-09-09T00:14:15;101952.56;;;13.37;100.00
18821;BME280;9539;59.332;18.034;2022-09-09T00:16:50;101956.88;;;13.39;100.00
18821;BME280;9539;59.332;18.034;2022-09-09T00:19:22;101958.19;;;13.48;100.00
18821;BME280;9539;59.332;18.034;2022-09-09T00:22:00;101959.91;;;13.49;100.00
18821;BME280;9539;59.332;18.034;2022-09-09T00:24:35;101951.28;;;13.44;100.00
18821;BME280;9539;59.332;18.034;2022-09-09T00:27:08;101953.56;;;13.51;100.00
18821;BME280;9539;59.332;18.034;2022-09-09T00:29:43;101957.22;;;13.33;100.00
18821;BME280;9539;59.332;18.034;2022-09-09T00:32:13;101949.66;;;13.41;100.00
18821;BME280;9539;59.332;18.034;2022-09-09T00:34:47;101942.81;;;13.53;100.00
18821;BME280;9539;59.332;18.034;2022-09-09T00:37:15;101942.06;;;13.67;100.00
18821;BME280;9539;59.332;18.034;2022-09-09T00:39:45;101942.41;;;13.60;100.00
18821;BME280;9539;59.332;18.034;2022-09-09T00:42:15;101939.28;;;13.68;100.00
18821;BME280;9539;59.332;18.034;2022-09-09T00:44:58;101938.16;;;13.56;100.00
18821;BME280;9539;59.332;18.034;2022-09-09T00:47:38;101940.44;;;13.80;100.00
18821;BME280;9539;59.332;18.034;2022-09-09T00:53:05;101933.28;;;13.96;100.00
18821;BME280;9539;59.332;18.034;2022-09-09T00:55:44;101937.50;;;13.84;100.00
18821;BME280;9539;59.332;18.034;2022-09-09T00:58:13;101933.47;;;13.77;100.00
18821;BME280;9539;59.332;18.034;2022-09-09T01:00:45;101929.44;;;13.86;100.00
18821;BME280;9539;59.332;18.034;2022-09-09T01:03:25;101925.88;;;14.01;100.00
18821;BME280;9539;59.332;18.034;2022-09-09T01:06:01;101929.94;;;14.08;100.00
18821;BME280;9539;59.332;18.034;2022-09-09T01:08:40;101930.88;;;13.76;100.00
18821;BME280;9539;59.332;18.034;2022-09-09T01:11:16;101924.09;;;13.86;100.00
18821;BME280;9539;59.332;18.034;2022-09-09T01:13:50;101912.63;;;13.84;100.00
18821;BME280;9539;59.332;18.034;2022-09-09T01:16:21;101919.00;;;13.97;100.00
18821;BME280;9539;59.332;18.034;2022-09-09T01:18:51;101925.53;;;13.76;100.00
18821;BME280;9539;59.332;18.034;2022-09-09T01:21:30;101919.59;;;14.02;100.00
18821;BME280;9539;59.332;18.034;2022-09-09T01:24:18;101915.72;;;13.76;100.00
18821;BME280;9539;59.332;18.034;2022-09-09T01:26:47;101914.09;;;14.05;100.00
18821;BME280;9539;59.332;18.034;2022-09-09T01:29:17;101912.09;;;14.24;100.00
18821;BME280;9539;59.332;18.034;2022-09-09T01:31:53;101903.09;;;14.11;100.00
18821;BME280;9539;59.332;18.034;2022-09-09T01:34:21;101890.25;;;13.71;100.00
18821;BME280;9539;59.332;18.034;2022-09-09T01:36:53;101915.84;;;14.06;100.00
18821;BME280;9539;59.332;18.034;2022-09-09T01:39:24;101909.03;;;13.85;100.00
18821;BME280;9539;59.332;18.034;2022-09-09T01:41:53;101911.69;;;14.00;100.00
18821;BME280;9539;59.332;18.034;2022-09-09T01:44:20;101906.34;;;13.85;100.00
18821;BME280;9539;59.332;18.034;2022-09-09T01:46:48;101912.38;;;14.04;100.00
18821;BME280;9539;59.332;18.034;2022-09-09T01:49:16;101909.78;;;14.02;100.00
18821;BME280;9539;59.332;18.034;2022-09-09T01:51:43;101910.13;;;13.96;100.00
18821;BME280;9539;59.332;18.034;2022-09-09T01:54:12;101907.81;;;14.06;100.00
18821;BME280;9539;59.332;18.034;2022-09-09T01:56:47;101908.50;;;14.10;100.00
18821;BME280;9539;59.332;18.034;2022-09-09T01:59:35;101897.03;;;14.08;100.00
18821;BME280;9539;59.332;18.034;2022-09-09T02:02:10;101895.31;;;14.07;100.00
18821;BME280;9539;59.332;18.034;2022-09-09T02:04:40;101891.97;;;14.19;100.00
18821;BME280;9539;59.332;18.034;2022-09-09T02:07:16;101888.88;;;14.11;100.00
18821;BME280;9539;59.332;18.034;2022-09-09T02:09:50;101886.78;;;14.16;100.00
18821;BME280;9539;59.332;18.034;2022-09-09T02:12:21;101873.72;;;14.11;100.00
18821;BME280;9539;59.332;18.034;2022-09-09T02:14:56;101889.81;;;14.25;100.00
18821;BME280;9539;59.332;18.034;2022-09-09T02:17:27;101881.53;;;14.30;100.00
18821;BME280;9539;59.332;18.034;2022-09-09T02:20:00;101873.44;;;14.16;100.00
18821;BME280;9539;59.332;18.034;2022-09-09T02:22:31;101866.81;;;14.23;100.00
18821;BME280;9539;59.332;18.034;2022-09-09T02:25:00;101877.06;;;14.15;100.00
18821;BME280;9539;59.332;18.034;2022-09-09T02:27:27;101870.25;;;14.25;100.00
18821;BME280;9539;59.332;18.034;2022-09-09T02:29:57;101875.13;;;14.32;100.00
18821;BME280;9539;59.332;18.034;2022-09-09T02:32:28;101871.00;;;14.43;100.00
18821;BME280;9539;59.332;18.034;2022-09-09T02:35:02;101866.72;;;14.24;100.00
18821;BME280;9539;59.332;18.034;2022-09-09T02:37:33;101871.28;;;14.38;100.00
18821;BME280;9539;59.332;18.034;2022-09-09T02:40:02;101870.06;;;14.44;100.00
18821;BME280;9539;59.332;18.034;2022-09-09T02:42:29;101867.81;;;14.20;100.00
18821;BME280;9539;59.332;18.034;2022-09-09T02:44:57;101856.78;;;14.26;100.00
18821;BME280;9539;59.332;18.034;2022-09-09T02:47:29;101861.31;;;14.26;100.00
18821;BME280;9539;59.332;18.034;2022-09-09T02:50:06;101857.66;;;14.27;100.00
18821;BME280;9539;59.332;18.034;2022-09-09T02:52:44;101864.72;;;14.28;100.00
18821;BME280;9539;59.332;18.034;2022-09-09T02:55:18;101864.63;;;14.29;100.00
18821;BME280;9539;59.332;18.034;2022-09-09T02:57:48;101855.75;;;14.29;100.00
18821;BME280;9539;59.332;18.034;2022-09-09T03:00:22;101856.25;;;14.35;100.00
18821;BME280;9539;59.332;18.034;2022-09-09T03:02:50;101852.13;;;14.46;100.00
18821;BME280;9539;59.332;18.034;2022-09-09T03:05:17;101851.72;;;14.22;100.00
18821;BME280;9539;59.332;18.034;2022-09-09T03:07:44;101851.94;;;14.33;100.00
18821;BME280;9539;59.332;18.034;2022-09-09T03:10:10;101858.16;;;14.49;100.00
18821;BME280;9539;59.332;18.034;2022-09-09T03:12:37;101849.13;;;14.52;100.00
18821;BME280;9539;59.332;18.034;2022-09-09T03:15:06;101846.19;;;14.40;100.00
18821;BME280;9539;59.332;18.034;2022-09-09T03:17:34;101847.75;;;14.59;100.00
18821;BME280;9539;59.332;18.034;2022-09-09T03:20:02;101845.22;;;14.57;100.00
18821;BME280;9539;59.332;18.034;2022-09-09T03:22:29;101838.44;;;14.52;100.00
18821;BME280;9539;59.332;18.034;2022-09-09T03:24:56;101847.28;;;14.52;100.00
18821;BME280;9539;59.332;18.034;2022-09-09T03:27:23;101836.69;;;14.51;100.00
18821;BME280;9539;59.332;18.034;2022-09-09T03:29:49;101835.94;;;14.49;100.00
18821;BME280;9539;59.332;18.034;2022-09-09T03:32:17;101832.69;;;14.28;100.00
18821;BME280;9539;59.332;18.034;2022-09-09T03:34:45;101829.84;;;14.31;100.00
18821;BME280;9539;59.332;18.034;2022-09-09T03:37:14;101833.09;;;14.36;100.00
18821;BME280;9539;59.332;18.034;2022-09-09T03:39:42;101830.72;;;14.16;100.00
18821;BME280;9539;59.332;18.034;2022-09-09T03:42:09;101834.41;;;14.29;100.00
18821;BME280;9539;59.332;18.034;2022-09-09T03:44:39;101822.09;;;14.26;100.00
18821;BME280;9539;59.332;18.034;2022-09-09T03:47:07;101826.75;;;14.23;100.00
18821;BME280;9539;59.332;18.034;2022-09-09T03:49:34;101826.13;;;14.33;100.00
18821;BME280;9539;59.332;18.034;2022-09-09T03:52:02;101817.72;;;14.25;100.00
18821;BME280;9539;59.332;18.034;2022-09-09T03:54:29;101826.56;;;14.42;100.00
18821;BME280;9539;59.332;18.034;2022-09-09T03:56:55;101823.44;;;14.49;100.00
18821;BME280;9539;59.332;18.034;2022-09-09T03:59:23;101829.44;;;14.53;100.00
18821;BME280;9539;59.332;18.034;2022-09-09T04:01:50;101827.34;;;14.44;100.00
18821;BME280;9539;59.332;18.034;2022-09-09T04:04:17;101823.22;;;14.38;100.00
18821;BME280;9539;59.332;18.034;2022-09-09T04:06:45;101823.94;;;14.56;100.00
18821;BME280;9539;59.332;18.034;2022-09-09T04:09:15;101814.19;;;14.55;100.00
18821;BME280;9539;59.332;18.034;2022-09-09T04:11:41;101821.81;;;14.61;100.00
18821;BME280;9539;59.332;18.034;2022-09-09T04:14:08;101819.63;;;14.53;100.00
18821;BME280;9539;59.332;18.034;2022-09-09T04:16:35;101821.75;;;14.62;100.00
18821;BME280;9539;59.332;18.034;2022-09-09T04:19:03;101814.38;;;14.66;100.00
18821;BME280;9539;59.332;18.034;2022-09-09T04:21:31;101819.34;;;14.72;100.00
18821;BME280;9539;59.332;18.034;2022-09-09T04:23:58;101821.66;;;14.78;100.00
18821;BME280;9539;59.332;18.034;2022-09-09T04:26:26;101819.06;;;14.62;100.00
18821;BME280;9539;59.332;18.034;2022-09-09T04:28:53;101829.66;;;14.64;100.00
18821;BME280;9539;59.332;18.034;2022-09-09T04:31:22;101827.38;;;14.58;100.00
18821;BME280;9539;59.332;18.034;2022-09-09T04:33:49;101821.63;;;14.50;100.00
18821;BME280;9539;59.332;18.034;2022-09-09T04:36:16;101829.25;;;14.56;100.00
18821;BME280;9539;59.332;18.034;2022-09-09T04:38:44;101820.03;;;14.75;100.00
18821;BME280;9539;59.332;18.034;2022-09-09T04:41:11;101824.22;;;14.79;100.00
18821;BME280;9539;59.332;18.034;2022-09-09T04:43:40;101822.31;;;14.67;100.00
18821;BME280;9539;59.332;18.034;2022-09-09T04:46:07;101827.00;;;14.78;100.00
18821;BME280;9539;59.332;18.034;2022-09-09T04:48:33;101823.97;;;14.70;100.00
18821;BME280;9539;59.332;18.034;2022-09-09T04:51:02;101828.53;;;14.82;100.00
18821;BME280;9539;59.332;18.034;2022-09-09T04:53:30;101824.72;;;14.86;100.00
18821;BME280;9539;59.332;18.034;2022-09-09T04:56:03;101822.03;;;14.72;100.00
18821;BME280;9539;59.332;18.034;2022-09-09T04:58:30;101826.84;;;14.95;100.00
18821;BME280;9539;59.332;18.034;2022-09-09T05:01:05;101822.91;;;15.01;100.00
18821;BME280;9539;59.332;18.034;2022-09-09T05:03:32;101830.94;;;15.01;100.00
18821;BME280;9539;59.332;18.034;2022-09-09T05:06:03;101818.50;;;14.86;100.00
18821;BME280;9539;59.332;18.034;2022-09-09T05:08:30;101830.00;;;15.02;100.00
18821;BME280;9539;59.332;18.034;2022-09-09T05:10:57;101828.44;;;15.12;100.00
18821;BME280;9539;59.332;18.034;2022-09-09T05:13:24;101830.75;;;15.18;100.00
18821;BME280;9539;59.332;18.034;2022-09-09T05:15:52;101832.66;;;15.16;99.64
18821;BME280;9539;59.332;18.034;2022-09-09T05:18:21;101825.22;;;15.21;98.02
18821;BME280;9539;59.332;18.034;2022-09-09T05:20:48;101829.69;;;15.49;97.77
18821;BME280;9539;59.332;18.034;2022-09-09T05:23:16;101833.81;;;15.54;93.86
18821;BME280;9539;59.332;18.034;2022-09-09T05:25:43;101829.31;;;15.55;90.08
18821;BME280;9539;59.332;18.034;2022-09-09T05:28:12;101828.22;;;15.98;89.99
18821;BME280;9539;59.332;18.034;2022-09-09T05:30:39;101831.25;;;16.07;89.47
18821;BME280;9539;59.332;18.034;2022-09-09T05:33:05;101827.94;;;16.16;88.87
18821;BME280;9539;59.332;18.034;2022-09-09T05:35:36;101833.56;;;16.25;85.47
18821;BME280;9539;59.332;18.034;2022-09-09T05:38:03;101837.31;;;15.96;85.16
18821;BME280;9539;59.332;18.034;2022-09-09T05:40:30;101835.69;;;16.20;84.69
18821;BME280;9539;59.332;18.034;2022-09-09T05:42:59;101839.81;;;16.51;81.57
18821;BME280;9539;59.332;18.034;2022-09-09T05:45:27;101832.19;;;17.46;75.98
18821;BME280;9539;59.332;18.034;2022-09-09T05:47:53;101831.84;;;17.64;70.64
18821;BME280;9539;59.332;18.034;2022-09-09T05:50:21;101837.03;;;18.73;65.38
18821;BME280;9539;59.332;18.034;2022-09-09T05:52:49;101841.56;;;18.84;66.73
18821;BME280;9539;59.332;18.034;2022-09-09T05:55:16;101836.88;;;18.74;61.68
18821;BME280;9539;59.332;18.034;2022-09-09T05:57:48;101845.78;;;18.75;63.95
18821;BME280;9539;59.332;18.034;2022-09-09T06:00:17;101841.38;;;18.04;63.46
18821;BME280;9539;59.332;18.034;2022-09-09T06:02:50;101829.56;;;18.88;60.35
18821;BME280;9539;59.332;18.034;2022-09-09T06:05:17;101838.63;;;19.20;57.96
18821;BME280;9539;59.332;18.034;2022-09-09T06:07:44;101845.56;;;18.78;57.26
18821;BME280;9539;59.332;18.034;2022-09-09T06:10:12;101829.25;;;19.91;52.88
18821;BME280;9539;59.332;18.034;2022-09-09T06:12:39;101842.25;;;19.86;54.04
18821;BME280;9539;59.332;18.034;2022-09-09T06:15:07;101842.94;;;19.11;54.27
18821;BME280;9539;59.332;18.034;2022-09-09T06:17:34;101842.59;;;19.92;54.16
18821;BME280;9539;59.332;18.034;2022-09-09T06:20:02;101845.72;;;19.66;53.15
18821;BME280;9539;59.332;18.034;2022-09-09T06:22:29;101847.88;;;19.94;53.47
18821;BME280;9539;59.332;18.034;2022-09-09T06:24:56;101830.44;;;20.09;52.57
18821;BME280;9539;59.332;18.034;2022-09-09T06:27:24;101850.50;;;19.51;53.70
18821;BME280;9539;59.332;18.034;2022-09-09T06:29:51;101840.81;;;19.71;52.85
18821;BME280;9539;59.332;18.034;2022-09-09T06:32:18;101840.94;;;19.80;52.91
18821;BME280;9539;59.332;18.034;2022-09-09T06:34:45;101840.69;;;19.39;53.58
18821;BME280;9539;59.332;18.034;2022-09-09T06:37:14;101825.81;;;19.57;52.93
18821;BME280;9539;59.332;18.034;2022-09-09T06:39:41;101841.56;;;19.06;55.84
18821;BME280;9539;59.332;18.034;2022-09-09T06:42:08;101844.84;;;18.87;55.64
18821;BME280;9539;59.332;18.034;2022-09-09T06:44:36;101833.63;;;19.38;55.12
18821;BME280;9539;59.332;18.034;2022-09-09T06:47:03;101836.28;;;18.93;54.24
18821;BME280;9539;59.332;18.034;2022-09-09T06:49:30;101828.97;;;18.84;54.41
18821;BME280;9539;59.332;18.034;2022-09-09T06:51:57;101818.34;;;19.49;53.01
18821;BME280;9539;59.332;18.034;2022-09-09T06:54:24;101831.75;;;19.72;52.49
18821;BME280;9539;59.332;18.034;2022-09-09T06:56:51;101841.22;;;19.44;54.17
18821;BME280;9539;59.332;18.034;2022-09-09T06:59:18;101835.69;;;19.34;53.28
18821;BME280;9539;59.332;18.034;2022-09-09T07:01:46;101843.53;;;20.14;50.83
18821;BME280;9539;59.332;18.034;2022-09-09T07:04:13;101827.03;;;20.60;49.09
18821;BME280;9539;59.332;18.034;2022-09-09T07:06:41;101859.97;;;20.43;49.08
18821;BME280;9539;59.332;18.034;2022-09-09T07:09:11;101839.91;;;20.24;49.29
18821;BME280;9539;59.332;18.034;2022-09-09T07:11:39;101844.28;;;20.05;49.30
18821;BME280;9539;59.332;18.034;2022-09-09T07:14:06;101843.06;;;20.09;47.89
18821;BME280;9539;59.332;18.034;2022-09-09T07:16:34;101841.16;;;19.77;48.26
18821;BME280;9539;59.332;18.034;2022-09-09T07:19:03;101837.56;;;19.99;47.97
18821;BME280;9539;59.332;18.034;2022-09-09T07:21:31;101849.66;;;19.28;50.25
18821;BME280;9539;59.332;18.034;2022-09-09T07:23:59;101859.44;;;19.18;50.58
18821;BME280;9539;59.332;18.034;2022-09-09T07:26:27;101864.13;;;19.49;48.93
18821;BME280;9539;59.332;18.034;2022-09-09T07:28:55;101861.06;;;20.08;47.39
18821;BME280;9539;59.332;18.034;2022-09-09T07:31:23;101866.19;;;20.11;47.29
18821;BME280;9539;59.332;18.034;2022-09-09T07:33:51;101851.00;;;20.42;46.69
18821;BME280;9539;59.332;18.034;2022-09-09T07:36:21;101848.00;;;20.24;46.97
18821;BME280;9539;59.332;18.034;2022-09-09T07:38:50;101851.22;;;18.97;47.64
18821;BME280;9539;59.332;18.034;2022-09-09T07:41:21;101840.25;;;20.31;46.25
18821;BME280;9539;59.332;18.034;2022-09-09T07:43:49;101860.91;;;20.53;44.80
18821;BME280;9539;59.332;18.034;2022-09-09T07:46:18;101871.28;;;19.15;46.24
18821;BME280;9539;59.332;18.034;2022-09-09T07:48:46;101849.22;;;17.71;53.02
18821;BME280;9539;59.332;18.034;2022-09-09T07:51:18;101835.72;;;16.98;59.63
18821;BME280;9539;59.332;18.034;2022-09-09T07:53:46;101860.16;;;17.06;63.65
18821;BME280;9539;59.332;18.034;2022-09-09T07:56:15;101870.09;;;16.66;66.54
18821;BME280;9539;59.332;18.034;2022-09-09T07:58:45;101861.09;;;17.43;62.72
18821;BME280;9539;59.332;18.034;2022-09-09T08:01:14;101855.22;;;18.46;57.86
18821;BME280;9539;59.332;18.034;2022-09-09T08:03:43;101871.97;;;18.73;56.60
18821;BME280;9539;59.332;18.034;2022-09-09T08:06:11;101857.84;;;19.04;53.17
18821;BME280;9539;59.332;18.034;2022-09-09T08:08:39;101857.41;;;18.75;52.55
18821;BME280;9539;59.332;18.034;2022-09-09T08:11:10;101868.94;;;17.95;58.41
18821;BME280;9539;59.332;18.034;2022-09-09T08:13:39;101863.50;;;17.71;59.21
18821;BME280;9539;59.332;18.034;2022-09-09T08:16:07;101849.84;;;17.00;61.54
18821;BME280;9539;59.332;18.034;2022-09-09T08:18:34;101860.50;;;18.93;56.52
18821;BME280;9539;59.332;18.034;2022-09-09T08:21:09;101858.97;;;18.32;59.24
18821;BME280;9539;59.332;18.034;2022-09-09T08:23:37;101873.44;;;18.18;59.59
18821;BME280;9539;59.332;18.034;2022-09-09T08:26:11;101894.25;;;17.54;60.79
18821;BME280;9539;59.332;18.034;2022-09-09T08:28:39;101882.88;;;17.38;63.01
18821;BME280;9539;59.332;18.034;2022-09-09T08:31:10;101873.19;;;17.97;60.00
18821;BME280;9539;59.332;18.034;2022-09-09T08:33:38;101885.88;;;17.46;65.65
18821;BME280;9539;59.332;18.034;2022-09-09T08:36:05;101878.50;;;16.99;64.67
18821;BME280;9539;59.332;18.034;2022-09-09T08:38:32;101883.31;;;17.19;62.76
18821;BME280;9539;59.332;18.034;2022-09-09T08:41:14;101898.97;;;17.00;64.30
18821;BME280;9539;59.332;18.034;2022-09-09T08:43:48;101868.94;;;17.33;63.13
18821;BME280;9539;59.332;18.034;2022-09-09T08:46:22;101883.97;;;17.23;62.82
18821;BME280;9539;59.332;18.034;2022-09-09T08:48:56;101871.44;;;17.11;63.92
18821;BME280;9539;59.332;18.034;2022-09-09T08:51:27;101860.97;;;17.32;65.90
18821;BME280;9539;59.332;18.034;2022-09-09T08:53:58;101861.88;;;17.07;69.18
18821;BME280;9539;59.332;18.034;2022-09-09T08:56:31;101874.94;;;17.11;70.56
18821;BME280;9539;59.332;18.034;2022-09-09T08:59:00;101867.22;;;16.82;72.95
18821;BME280;9539;59.332;18.034;2022-09-09T09:02:00;101880.75;;;16.53;74.91
18821;BME280;9539;59.332;18.034;2022-09-09T09:04:40;101863.50;;;17.09;72.79
18821;BME280;9539;59.332;18.034;2022-09-09T09:07:20;101884.16;;;16.82;74.32
18821;BME280;9539;59.332;18.034;2022-09-09T09:09:56;101867.97;;;17.22;70.51
18821;BME280;9539;59.332;18.034;2022-09-09T09:12:29;101885.38;;;16.91;73.31
18821;BME280;9539;59.332;18.034;2022-09-09T09:14:59;101884.47;;;16.65;70.52
18821;BME280;9539;59.332;18.034;2022-09-09T09:17:28;101902.50;;;16.75;70.37
18821;BME280;9539;59.332;18.034;2022-09-09T09:19:58;101882.53;;;16.79;71.31
18821;BME280;9539;59.332;18.034;2022-09-09T09:22:30;101879.16;;;17.15;72.45
18821;BME280;9539;59.332;18.034;2022-09-09T09:25:04;101870.00;;;16.67;73.96
18821;BME280;9539;59.332;18.034;2022-09-09T09:27:41;101868.84;;;16.84;74.37
18821;BME280;9539;59.332;18.034;2022-09-09T09:30:15;101869.19;;;16.53;77.49
18821;BME280;9539;59.332;18.034;2022-09-09T09:32:46;101876.97;;;16.30;77.20
18821;BME280;9539;59.332;18.034;2022-09-09T09:35:16;101878.81;;;16.82;74.08
18821;BME280;9539;59.332;18.034;2022-09-09T09:37:42;101898.88;;;16.89;73.64
18821;BME280;9539;59.332;18.034;2022-09-09T09:40:12;101870.53;;;16.33;77.74
18821;BME280;9539;59.332;18.034;2022-09-09T09:42:51;101859.94;;;16.05;79.68
18821;BME280;9539;59.332;18.034;2022-09-09T09:45:27;101869.78;;;16.70;78.01
18821;BME280;9539;59.332;18.034;2022-09-09T09:48:03;101867.97;;;17.22;73.40
18821;BME280;9539;59.332;18.034;2022-09-09T09:50:32;101860.81;;;16.84;74.41
18821;BME280;9539;59.332;18.034;2022-09-09T09:53:03;101861.22;;;16.65;76.09
18821;BME280;9539;59.332;18.034;2022-09-09T09:55:31;101850.50;;;17.78;70.92
18821;BME280;9539;59.332;18.034;2022-09-09T09:58:05;101844.19;;;17.17;71.65
18821;BME280;9539;59.332;18.034;2022-09-09T10:00:33;101851.59;;;18.23;66.04
18821;BME280;9539;59.332;18.034;2022-09-09T10:03:01;101851.63;;;17.63;66.15
18821;BME280;9539;59.332;18.034;2022-09-09T10:05:29;101846.59;;;17.45;71.21
18821;BME280;9539;59.332;18.034;2022-09-09T10:08:10;101842.28;;;17.55;68.27
18821;BME280;9539;59.332;18.034;2022-09-09T10:10:45;101842.47;;;17.03;67.38
18821;BME280;9539;59.332;18.034;2022-09-09T10:13:20;101849.00;;;16.87;70.29
18821;BME280;9539;59.332;18.034;2022-09-09T10:16:01;101845.66;;;17.21;69.61
18821;BME280;9539;59.332;18.034;2022-09-09T10:18:41;101848.47;;;16.94;70.08
18821;BME280;9539;59.332;18.034;2022-09-09T10:21:19;101854.34;;;17.25;69.67
18821;BME280;9539;59.332;18.034;2022-09-09T10:24:01;101857.28;;;16.44;71.02
18821;BME280;9539;59.332;18.034;2022-09-09T10:26:40;101840.66;;;16.39;71.91
18821;BME280;9539;59.332;18.034;2022-09-09T10:29:29;101853.81;;;16.69;69.15
18821;BME280;9539;59.332;18.034;2022-09-09T10:32:07;101854.72;;;17.44;65.68
18821;BME280;9539;59.332;18.034;2022-09-09T10:34:56;101850.59;;;17.27;66.26
18821;BME280;9539;59.332;18.034;2022-09-09T10:37:36;101838.31;;;18.56;61.96
18821;BME280;9539;59.332;18.034;2022-09-09T10:40:25;101837.88;;;17.91;62.17
18821;BME280;9539;59.332;18.034;2022-09-09T10:43:00;101839.91;;;17.64;63.46
18821;BME280;9539;59.332;18.034;2022-09-09T10:45:41;101849.22;;;17.58;63.81
18821;BME280;9539;59.332;18.034;2022-09-09T10:48:30;101858.81;;;17.49;62.82
18821;BME280;9539;59.332;18.034;2022-09-09T10:51:09;101847.56;;;18.28;63.09
18821;BME280;9539;59.332;18.034;2022-09-09T10:53:48;101841.22;;;18.29;65.33
18821;BME280;9539;59.332;18.034;2022-09-09T10:56:20;101833.16;;;17.94;66.91
18821;BME280;9539;59.332;18.034;2022-09-09T10:58:52;101821.72;;;18.38;63.41
18821;BME280;9539;59.332;18.034;2022-09-09T11:01:29;101829.03;;;18.36;65.51
18821;BME280;9539;59.332;18.034;2022-09-09T11:04:02;101858.97;;;17.10;67.18
18821;BME280;9539;59.332;18.034;2022-09-09T11:06:35;101839.97;;;17.26;68.20
18821;BME280;9539;59.332;18.034;2022-09-09T11:09:05;101842.50;;;17.89;66.34
18821;BME280;9539;59.332;18.034;2022-09-09T11:11:36;101828.19;;;18.01;64.98
18821;BME280;9539;59.332;18.034;2022-09-09T11:14:11;101823.78;;;17.14;68.50
18821;BME280;9539;59.332;18.034;2022-09-09T11:16:46;101829.78;;;17.18;69.19
18821;BME280;9539;59.332;18.034;2022-09-09T11:19:19;101831.31;;;17.09;67.90
18821;BME280;9539;59.332;18.034;2022-09-09T11:21:49;101831.31;;;16.97;68.34
18821;BME280;9539;59.332;18.034;2022-09-09T11:24:22;101837.19;;;17.02;69.22
18821;BME280;9539;59.332;18.034;2022-09-09T11:26:54;101838.25;;;16.74;70.42
18821;BME280;9539;59.332;18.034;2022-09-09T11:33:00;101837.81;;;17.18;73.83
18821;BME280;9539;59.332;18.034;2022-09-09T11:35:40;101817.56;;;16.63;76.14
18821;BME280;9539;59.332;18.034;2022-09-09T11:38:18;101818.22;;;16.27;80.15
18821;BME280;9539;59.332;18.034;2022-09-09T11:40:46;101818.22;;;16.92;76.96
18821;BME280;9539;59.332;18.034;2022-09-09T11:43:23;101819.47;;;17.12;76.79
18821;BME280;9539;59.332;18.034;2022-09-09T11:45:53;101805.84;;;17.28;76.40
18821;BME280;9539;59.332;18.034;2022-09-09T11:48:28;101820.75;;;17.19;76.47
18821;BME280;9539;59.332;18.034;2022-09-09T11:51:02;101818.97;;;16.69;78.70
18821;BME280;9539;59.332;18.034;2022-09-09T11:53:30;101816.19;;;16.18;80.59
18821;BME280;9539;59.332;18.034;2022-09-09T11:56:24;101803.75;;;16.82;76.81
18821;BME280;9539;59.332;18.034;2022-09-09T11:58:56;101796.03;;;17.03;77.89
18821;BME280;9539;59.332;18.034;2022-09-09T12:01:29;101797.91;;;17.26;76.69
18821;BME280;9539;59.332;18.034;2022-09-09T12:04:13;101800.91;;;17.22;78.34
18821;BME280;9539;59.332;18.034;2022-09-09T12:06:45;101809.44;;;16.65;81.36
18821;BME280;9539;59.332;18.034;2022-09-09T12:09:20;101803.75;;;16.69;82.54
18821;BME280;9539;59.332;18.034;2022-09-09T12:11:50;101817.75;;;16.08;85.32
18821;BME280;9539;59.332;18.034;2022-09-09T12:14:21;101810.09;;;16.42;85.03
18821;BME280;9539;59.332;18.034;2022-09-09T12:16:49;101809.22;;;16.81;83.32
18821;BME280;9539;59.332;18.034;2022-09-09T12:19:19;101811.56;;;16.60;84.78
18821;BME280;9539;59.332;18.034;2022-09-09T12:21:56;101818.22;;;16.67;82.08
18821;BME280;9539;59.332;18.034;2022-09-09T12:24:30;101809.53;;;17.01;81.87
18821;BME280;9539;59.332;18.034;2022-09-09T12:27:06;101803.41;;;16.74;83.76
18821;BME280;9539;59.332;18.034;2022-09-09T12:29:42;101802.63;;;16.59;84.35
18821;BME280;9539;59.332;18.034;2022-09-09T12:32:15;101805.22;;;17.11;83.26
18821;BME280;9539;59.332;18.034;2022-09-09T12:34:47;101816.91;;;16.60;84.93
18821;BME280;9539;59.332;18.034;2022-09-09T12:37:27;101808.03;;;16.72;84.35
18821;BME280;9539;59.332;18.034;2022-09-09T12:39:57;101808.03;;;16.85;83.07
18821;BME280;9539;59.332;18.034;2022-09-09T12:42:26;101802.53;;;16.99;81.69
18821;BME280;9539;59.332;18.034;2022-09-09T12:44:55;101799.88;;;16.86;82.29
18821;BME280;9539;59.332;18.034;2022-09-09T12:47:26;101808.47;;;16.78;82.98
18821;BME280;9539;59.332;18.034;2022-09-09T12:49:56;101790.13;;;16.72;84.75
18821;BME280;9539;59.332;18.034;2022-09-09T12:52:26;101788.41;;;16.97;82.53
18821;BME280;9539;59.332;18.034;2022-09-09T12:54:55;101802.25;;;16.91;83.71
18821;BME280;9539;59.332;18.034;2022-09-09T12:57:24;101788.25;;;17.24;82.74
18821;BME280;9539;59.332;18.034;2022-09-09T12:59:52;101785.50;;;16.62;84.15
18821;BME280;9539;59.332;18.034;2022-09-09T13:02:31;101783.22;;;17.19;83.56
18821;BME280;9539;59.332;18.034;2022-09-09T13:05:14;101797.09;;;16.88;83.08
18821;BME280;9539;59.332;18.034;2022-09-09T13:07:41;101783.56;;;17.02;83.08
18821;BME280;9539;59.332;18.034;2022-09-09T13:10:11;101784.31;;;16.66;83.53
18821;BME280;9539;59.332;18.034;2022-09-09T13:12:38;101774.78;;;16.87;82.51